createdAt,value
2022-12-26T00:01:09.608Z,96411.25
2022-12-26T00:03:56.595Z,96412.41
2022-12-26T00:06:42.700Z,96411.13
2022-12-26T00:09:28.341Z,96413.00
2022-12-26T00:12:14.209Z,96411.22
2022-12-26T00:15:00.235Z,96410.31
2022-12-26T00:17:45.946Z,96413.81
2022-12-26T00:20:31.485Z,96409.63
2022-12-26T00:23:17.079Z,96421.94
2022-12-26T00:26:08.312Z,96425.66
2022-12-26T00:28:55.289Z,96422.91
2022-12-26T00:31:41.164Z,96436.34
2022-12-26T00:34:26.826Z,96429.38
2022-12-26T00:37:12.467Z,96425.19
2022-12-26T00:39:58.126Z,96420.19
2022-12-26T00:42:44.799Z,96434.44
2022-12-26T00:45:30.620Z,96440.38
2022-12-26T00:48:16.210Z,96438.16
2022-12-26T00:51:02.164Z,96444.66
2022-12-26T00:53:48.161Z,96448.03
2022-12-26T00:56:35.047Z,96445.59
2022-12-26T00:59:21.930Z,96444.78
2022-12-26T01:02:27.896Z,96442.38
2022-12-26T01:05:13.785Z,96444.47
2022-12-26T01:08:21.146Z,96441.22
2022-12-26T01:11:08.255Z,96439.34
2022-12-26T01:13:54.128Z,96441.56
2022-12-26T01:16:40.588Z,96442.84
2022-12-26T01:19:26.522Z,96447.13
2022-12-26T01:22:12.308Z,96442.84
2022-12-26T01:24:58.203Z,96447.03
2022-12-26T01:27:44.265Z,96443.78
2022-12-26T01:30:29.982Z,96446.72
2022-12-26T01:33:16.161Z,96447.75
2022-12-26T01:36:01.927Z,96426.03
2022-12-26T01:38:47.501Z,96441.03
2022-12-26T01:41:33.374Z,96436.72
2022-12-26T01:44:56.609Z,96436.16
2022-12-26T01:47:57.181Z,96435.34
2022-12-26T01:50:42.839Z,96439.78
2022-12-26T01:53:37.591Z,96429.44
2022-12-26T01:56:36.494Z,96432.03
2022-12-26T01:59:25.834Z,96427.38
2022-12-26T02:02:11.823Z,96426.84
2022-12-26T02:05:16.776Z,96433.44
2022-12-26T02:08:17.636Z,96437.16
2022-12-26T02:11:31.619Z,96431.25
2022-12-26T02:14:17.600Z,96422.88
2022-12-26T02:17:04.089Z,96440.88
2022-12-26T02:20:04.107Z,96446.66
2022-12-26T02:23:20.104Z,96445.03
2022-12-26T02:26:24.005Z,96447.13
2022-12-26T02:29:21.984Z,96442.88
2022-12-26T02:32:26.326Z,96441.69
2022-12-26T02:35:37.190Z,96439.63
2022-12-26T02:38:48.492Z,96454.69
2022-12-26T02:41:50.402Z,96454.13
2022-12-26T02:44:54.823Z,96461.56
2022-12-26T02:48:10.195Z,96463.50
2022-12-26T02:51:14.230Z,96461.34
2022-12-26T02:54:38.713Z,96458.53
2022-12-26T02:57:50.133Z,96462.69
2022-12-26T03:00:57.755Z,96466.91
2022-12-26T03:04:08.668Z,96470.00
2022-12-26T03:07:16.172Z,96464.09
2022-12-26T03:10:25.934Z,96467.78
2022-12-26T03:13:26.334Z,96463.28
2022-12-26T03:16:31.114Z,96456.31
2022-12-26T03:19:17.367Z,96455.50
2022-12-26T03:22:27.725Z,96453.91
2022-12-26T03:25:50.854Z,96454.47
2022-12-26T03:28:36.776Z,96443.47
2022-12-26T03:31:22.811Z,96452.63
2022-12-26T03:34:28.154Z,96451.34
2022-12-26T03:37:56.237Z,96448.09
2022-12-26T03:41:10.138Z,96435.00
2022-12-26T03:44:46.245Z,96445.31
2022-12-26T03:48:37.835Z,96448.00
2022-12-26T03:52:31.421Z,96446.13
2022-12-26T03:56:15.828Z,96448.00
2022-12-26T03:59:26.685Z,96448.44
2022-12-26T04:02:39.702Z,96442.06
2022-12-26T04:05:49.340Z,96440.44
2022-12-26T04:09:13.315Z,96459.34
2022-12-26T04:12:19.382Z,96455.25
2022-12-26T04:16:06.103Z,96460.72
2022-12-26T04:19:27.228Z,96465.69
2022-12-26T04:22:39.672Z,96457.59
2022-12-26T04:25:58.883Z,96464.75
2022-12-26T04:29:03.397Z,96470.31
2022-12-26T04:32:17.242Z,96480.38
2022-12-26T04:35:47.024Z,96479.22
2022-12-26T04:38:57.830Z,96487.69
2022-12-26T04:42:03.841Z,96493.47
2022-12-26T04:44:50.359Z,96490.22
2022-12-26T04:47:36.447Z,96491.03
2022-12-26T04:50:22.158Z,96493.47
2022-12-26T04:53:07.733Z,96492.44
2022-12-26T04:55:53.441Z,96494.28
2022-12-26T04:58:39.286Z,96488.56
2022-12-26T05:01:44.232Z,96494.13
2022-12-26T05:04:48.996Z,96501.31
2022-12-26T05:07:54.988Z,96500.75
2022-12-26T05:10:40.978Z,96500.16
2022-12-26T05:13:26.986Z,96501.78
2022-12-26T05:16:31.143Z,96494.81
2022-12-26T05:19:37.522Z,96509.91
2022-12-26T05:22:42.515Z,96494.38
2022-12-26T05:25:52.575Z,96501.91
2022-12-26T05:28:44.638Z,96492.28
2022-12-26T05:31:35.578Z,96501.47
2022-12-26T05:34:22.421Z,96502.84
2022-12-26T05:37:08.098Z,96502.03
2022-12-26T05:39:53.853Z,96500.41
2022-12-26T05:42:39.628Z,96507.22
2022-12-26T05:45:25.237Z,96504.78
2022-12-26T05:48:10.868Z,96508.84
2022-12-26T05:51:03.377Z,96511.53
2022-12-26T05:53:49.430Z,96515.00
2022-12-26T05:56:35.319Z,96513.59
2022-12-26T05:59:20.974Z,96519.06
2022-12-26T06:02:07.002Z,96526.63
2022-12-26T06:04:52.942Z,96513.53
2022-12-26T06:07:38.863Z,96520.38
2022-12-26T06:10:26.908Z,96513.41
2022-12-26T06:13:12.564Z,96514.59
2022-12-26T06:15:59.337Z,96511.94
2022-12-26T06:18:45.661Z,96517.25
2022-12-26T06:21:31.592Z,96525.59
2022-12-26T06:24:17.382Z,96523.81
2022-12-26T06:27:03.261Z,96527.41
2022-12-26T06:29:49.179Z,96521.53
2022-12-26T06:32:35.055Z,96520.84
2022-12-26T06:35:23.660Z,96521.06
2022-12-26T06:38:11.115Z,96534.38
2022-12-26T06:41:02.887Z,96519.91
2022-12-26T06:43:49.779Z,96525.22
2022-12-26T06:46:35.398Z,96536.00
2022-12-26T06:49:21.037Z,96527.78
2022-12-26T06:52:07.490Z,96540.50
2022-12-26T06:54:53.535Z,96528.38
2022-12-26T06:57:39.199Z,96538.34
2022-12-26T07:00:25.229Z,96531.97
2022-12-26T07:03:11.544Z,96539.09
2022-12-26T07:05:57.405Z,96546.03
2022-12-26T07:08:43.014Z,96543.94
2022-12-26T07:11:31.130Z,96542.69
2022-12-26T07:14:17.277Z,96546.75
2022-12-26T07:17:02.864Z,96543.28
2022-12-26T07:19:48.569Z,96552.69
2022-12-26T07:22:34.346Z,96562.13
2022-12-26T07:25:20.119Z,96564.91
2022-12-26T07:28:12.009Z,96561.78
2022-12-26T07:30:59.986Z,96570.50
2022-12-26T07:33:53.425Z,96568.19
2022-12-26T07:36:40.508Z,96573.66
2022-12-26T07:39:26.038Z,96570.75
2022-12-26T07:42:11.810Z,96581.56
2022-12-26T07:44:57.614Z,96581.69
2022-12-26T07:47:43.108Z,96586.13
2022-12-26T07:50:29.292Z,96583.91
2022-12-26T07:53:15.438Z,96591.59
2022-12-26T07:56:01.771Z,96598.91
2022-12-26T07:58:51.549Z,96594.97
2022-12-26T08:01:37.672Z,96588.94
2022-12-26T08:04:23.735Z,96585.69
2022-12-26T08:07:10.058Z,96592.19
2022-12-26T08:09:55.676Z,96598.69
2022-12-26T08:12:42.012Z,96595.22
2022-12-26T08:15:27.781Z,96592.88
2022-12-26T08:18:13.502Z,96610.06
2022-12-26T08:20:59.890Z,96600.44
2022-12-26T08:23:48.443Z,96617.41
2022-12-26T08:26:34.411Z,96612.88
2022-12-26T08:29:20.206Z,96608.34
2022-12-26T08:32:06.169Z,96605.91
2022-12-26T08:34:51.985Z,96617.28
2022-12-26T08:37:38.004Z,96613.34
2022-12-26T08:40:42.082Z,96620.63
2022-12-26T08:43:48.914Z,96621.81
2022-12-26T08:46:36.124Z,96613.34
2022-12-26T08:49:21.765Z,96607.06
2022-12-26T08:52:07.633Z,96611.13
2022-12-26T08:54:53.676Z,96613.09
2022-12-26T08:57:39.305Z,96612.63
2022-12-26T09:00:26.477Z,96620.31
2022-12-26T09:03:12.236Z,96617.50
2022-12-26T09:06:05.718Z,96614.69
2022-12-26T09:08:53.680Z,96615.41
2022-12-26T09:11:41.071Z,96616.06
2022-12-26T09:14:26.833Z,96617.22
2022-12-26T09:17:12.727Z,96615.69
2022-12-26T09:19:58.725Z,96611.59
2022-12-26T09:22:55.570Z,96616.47
2022-12-26T09:25:41.438Z,96618.78
2022-12-26T09:28:27.515Z,96616.69
2022-12-26T09:31:17.311Z,96610.88
2022-12-26T09:34:05.220Z,96612.84
2022-12-26T09:36:51.042Z,96608.97
2022-12-26T09:39:36.919Z,96604.84
2022-12-26T09:42:32.122Z,96600.16
2022-12-26T09:45:19.965Z,96598.16
2022-12-26T09:48:56.595Z,96594.28
2022-12-26T09:51:46.001Z,96594.38
2022-12-26T09:54:34.343Z,96591.53
2022-12-26T09:57:34.945Z,96588.47
2022-12-26T10:00:25.722Z,96581.66
2022-12-26T10:03:12.835Z,96584.25
2022-12-26T10:06:01.766Z,96577.72
2022-12-26T10:09:08.794Z,96577.78
2022-12-26T10:12:06.280Z,96574.63
2022-12-26T10:15:07.497Z,96579.25
2022-12-26T10:18:03.047Z,96571.28
2022-12-26T10:21:11.508Z,96570.22
2022-12-26T10:24:20.967Z,96563.00
2022-12-26T10:27:14.482Z,96554.25
2022-12-26T10:30:09.183Z,96546.84
2022-12-26T10:32:59.597Z,96547.69
2022-12-26T10:35:46.541Z,96534.38
2022-12-26T10:38:46.195Z,96536.00
2022-12-26T10:41:38.585Z,96527.41
2022-12-26T10:44:27.763Z,96522.84
2022-12-26T10:47:40.655Z,96524.16
2022-12-26T10:50:29.424Z,96519.84
2022-12-26T10:53:16.220Z,96509.00
2022-12-26T10:56:02.656Z,96514.94
2022-12-26T10:59:02.536Z,96508.44
2022-12-26T11:01:49.753Z,96505.22
2022-12-26T11:05:10.466Z,96510.56
2022-12-26T11:07:50.534Z,96509.00
2022-12-26T11:10:36.388Z,96509.09
2022-12-26T11:13:23.323Z,96505.16
2022-12-26T11:16:11.575Z,96513.06
2022-12-26T11:18:57.849Z,96502.81
2022-12-26T11:21:43.791Z,96496.00
2022-12-26T11:24:29.549Z,96492.41
2022-12-26T11:27:23.717Z,96493.63
2022-12-26T11:30:23.208Z,96496.16
2022-12-26T11:33:33.999Z,96484.41
2022-12-26T11:36:22.985Z,96460.00
2022-12-26T11:39:25.306Z,96465.69
2022-12-26T11:42:12.515Z,96465.16
2022-12-26T11:45:00.231Z,96465.69
2022-12-26T11:47:46.318Z,96454.41
2022-12-26T11:50:32.327Z,96452.28
2022-12-26T11:53:20.689Z,96453.91
2022-12-26T11:56:07.256Z,96460.91
2022-12-26T11:59:08.107Z,96453.97
2022-12-26T12:02:15.214Z,96443.81
2022-12-26T12:05:13.144Z,96439.56
2022-12-26T12:08:14.497Z,96429.69
2022-12-26T12:11:34.375Z,96430.06
2022-12-26T12:14:35.818Z,96433.31
2022-12-26T12:17:35.132Z,96434.69
2022-12-26T12:20:35.968Z,96424.81
2022-12-26T12:23:44.151Z,96428.16
2022-12-26T12:26:38.056Z,96418.06
2022-12-26T12:29:42.619Z,96421.38
2022-12-26T12:33:09.566Z,96417.66
2022-12-26T12:36:11.804Z,96404.47
2022-12-26T12:39:34.673Z,96408.50
2022-12-26T12:42:28.098Z,96411.72
2022-12-26T12:45:22.364Z,96414.91
2022-12-26T12:48:33.042Z,96421.38
2022-12-26T12:51:35.970Z,96418.41
2022-12-26T12:55:12.538Z,96419.81
2022-12-26T12:58:26.366Z,96417.94
2022-12-26T13:01:34.505Z,96412.28
2022-12-26T13:04:29.313Z,96403.94
2022-12-26T13:07:39.429Z,96400.44
2022-12-26T13:10:33.279Z,96397.47
2022-12-26T13:13:27.457Z,96398.81
2022-12-26T13:16:17.414Z,96396.66
2022-12-26T13:19:06.922Z,96393.16
2022-12-26T13:21:56.069Z,96392.91
2022-12-26T13:24:45.343Z,96400.97
2022-12-26T13:27:34.032Z,96394.50
2022-12-26T13:30:19.805Z,96406.03
2022-12-26T13:33:05.967Z,96400.59
2022-12-26T13:36:01.028Z,96394.28
2022-12-26T13:38:56.249Z,96388.69
2022-12-26T13:42:26.916Z,96387.13
2022-12-26T13:45:37.534Z,96373.09
2022-12-26T13:48:26.363Z,96368.53
2022-12-26T13:51:46.269Z,96368.38
2022-12-26T13:54:32.668Z,96371.97
2022-12-26T13:57:30.361Z,96380.47
2022-12-26T14:00:40.108Z,96372.81
2022-12-26T14:03:55.663Z,96366.34
2022-12-26T14:07:05.484Z,96374.94
2022-12-26T14:10:05.398Z,96377.34
2022-12-26T14:13:27.833Z,96378.38
2022-12-26T14:16:54.182Z,96372.72
2022-12-26T14:19:53.705Z,96390.69
2022-12-26T14:23:04.602Z,96376.78
2022-12-26T14:26:03.642Z,96370.41
2022-12-26T14:28:52.573Z,96373.69
2022-12-26T14:32:04.039Z,96372.72
2022-12-26T14:35:09.518Z,96362.00
2022-12-26T14:38:11.306Z,96366.31
2022-12-26T14:41:06.132Z,96365.28
2022-12-26T14:43:56.338Z,96372.31
2022-12-26T14:46:43.692Z,96367.78
2022-12-26T14:49:35.922Z,96375.63
2022-12-26T14:52:25.568Z,96376.44
2022-12-26T14:56:01.592Z,96369.72
2022-12-26T14:58:54.117Z,96364.34
2022-12-26T15:01:40.342Z,96364.91
2022-12-26T15:04:32.558Z,96374.03
2022-12-26T15:07:42.716Z,96371.63
2022-12-26T15:11:23.885Z,96373.50
2022-12-26T15:14:28.479Z,96374.59
2022-12-26T15:17:49.296Z,96367.59
2022-12-26T15:21:09.169Z,96375.13
2022-12-26T15:24:09.984Z,96370.03
2022-12-26T15:27:38.562Z,96374.03
2022-12-26T15:30:41.745Z,96369.72
2022-12-26T15:33:43.454Z,96377.78
2022-12-26T15:37:08.812Z,96374.03
2022-12-26T15:40:08.157Z,96380.72
2022-12-26T15:43:04.008Z,96370.22
2022-12-26T15:45:58.593Z,96378.28
2022-12-26T15:48:47.564Z,96370.19
2022-12-26T15:51:55.652Z,96369.91
2022-12-26T15:55:05.040Z,96379.31
2022-12-26T15:58:02.012Z,96376.31
2022-12-26T16:00:54.098Z,96373.31
2022-12-26T16:03:54.026Z,96380.56
2022-12-26T16:06:48.824Z,96383.50
2022-12-26T16:09:43.870Z,96380.50
2022-12-26T16:12:32.713Z,96387.72
2022-12-26T16:15:19.116Z,96386.63
2022-12-26T16:18:26.630Z,96393.03
2022-12-26T16:21:33.244Z,96393.84
2022-12-26T16:24:22.087Z,96402.09
2022-12-26T16:27:09.611Z,96403.72
2022-12-26T16:29:58.169Z,96394.28
2022-12-26T16:32:45.008Z,96403.16
2022-12-26T16:35:36.659Z,96409.03
2022-12-26T16:38:26.772Z,96403.41
2022-12-26T16:41:30.799Z,96401.47
2022-12-26T16:44:41.439Z,96405.72
2022-12-26T16:47:29.190Z,96397.09
2022-12-26T16:50:17.899Z,96405.16
2022-12-26T16:53:13.597Z,96402.97
2022-12-26T16:56:23.591Z,96403.97
2022-12-26T16:59:17.960Z,96412.03
2022-12-26T17:02:04.803Z,96405.28
2022-12-26T17:04:58.849Z,96412.00
2022-12-26T17:07:46.887Z,96403.66
2022-12-26T17:10:35.427Z,96400.97
2022-12-26T17:13:25.205Z,96407.38
2022-12-26T17:16:11.275Z,96405.75
2022-12-26T17:19:19.910Z,96415.38
2022-12-26T17:22:18.022Z,96415.06
2022-12-26T17:25:32.043Z,96415.03
2022-12-26T17:28:18.223Z,96409.59
2022-12-26T17:31:24.931Z,96410.94
2022-12-26T17:34:17.760Z,96409.00
2022-12-26T17:37:20.538Z,96414.06
2022-12-26T17:40:16.018Z,96419.66
2022-12-26T17:43:34.440Z,96421.22
2022-12-26T17:46:23.764Z,96416.38
2022-12-26T17:49:09.609Z,96416.63
2022-12-26T17:52:02.044Z,96421.72
2022-12-26T17:54:51.352Z,96422.78
2022-12-26T17:57:37.116Z,96416.31
2022-12-26T18:00:26.019Z,96418.44
2022-12-26T18:03:12.239Z,96428.59
2022-12-26T18:05:58.342Z,96418.63
2022-12-26T18:08:44.765Z,96413.47
2022-12-26T18:11:30.759Z,96404.88
2022-12-26T18:14:16.432Z,96409.94
2022-12-26T18:17:03.070Z,96408.63
2022-12-26T18:19:50.224Z,96416.09
2022-12-26T18:22:36.068Z,96418.22
2022-12-26T18:25:24.817Z,96411.72
2022-12-26T18:28:15.265Z,96416.56
2022-12-26T18:31:01.360Z,96420.81
2022-12-26T18:33:47.257Z,96411.13
2022-12-26T18:36:35.850Z,96411.63
2022-12-26T18:39:21.805Z,96404.63
2022-12-26T18:42:12.047Z,96404.63
2022-12-26T18:44:57.770Z,96401.44
2022-12-26T18:47:43.448Z,96398.19
2022-12-26T18:50:30.209Z,96395.44
2022-12-26T18:53:15.955Z,96397.53
2022-12-26T18:56:01.988Z,96398.31
2022-12-26T18:58:54.065Z,96398.00
2022-12-26T19:01:43.843Z,96395.31
2022-12-26T19:04:29.726Z,96398.00
2022-12-26T19:07:17.370Z,96393.69
2022-12-26T19:10:03.018Z,96388.03
2022-12-26T19:12:48.830Z,96390.66
2022-12-26T19:15:36.013Z,96397.31
2022-12-26T19:18:21.753Z,96412.56
2022-12-26T19:21:16.505Z,96403.16
2022-12-26T19:24:02.683Z,96398.31
2022-12-26T19:26:48.715Z,96384.34
2022-12-26T19:29:34.391Z,96391.81
2022-12-26T19:32:20.366Z,96398.31
2022-12-26T19:35:07.753Z,96398.31
2022-12-26T19:37:53.597Z,96395.31
2022-12-26T19:40:39.591Z,96402.53
2022-12-26T19:43:25.343Z,96395.56
2022-12-26T19:46:15.482Z,96393.44
2022-12-26T19:49:01.449Z,96405.78
2022-12-26T19:51:47.672Z,96405.78
2022-12-26T19:54:42.922Z,96394.75
2022-12-26T19:57:43.706Z,96406.25
2022-12-26T20:00:30.883Z,96401.38
2022-12-26T20:03:16.822Z,96412.06
2022-12-26T20:06:15.436Z,96410.97
2022-12-26T20:09:05.762Z,96408.53
2022-12-26T20:11:54.206Z,96418.91
2022-12-26T20:14:40.082Z,96409.53
2022-12-26T20:17:26.128Z,96401.75
2022-12-26T20:20:11.941Z,96411.41
2022-12-26T20:22:57.842Z,96409.22
2022-12-26T20:25:43.534Z,96411.31
2022-12-26T20:28:29.801Z,96403.78
2022-12-26T20:31:19.416Z,96408.59
2022-12-26T20:34:05.377Z,96406.06
2022-12-26T20:36:51.562Z,96396.91
2022-12-26T20:39:37.572Z,96401.47
2022-12-26T20:42:23.464Z,96399.84
2022-12-26T20:45:09.632Z,96402.44
2022-12-26T20:47:55.429Z,96404.06
2022-12-26T20:50:41.366Z,96405.13
2022-12-26T20:53:28.364Z,96412.00
2022-12-26T20:56:14.817Z,96414.13
2022-12-26T20:59:00.881Z,96415.44
2022-12-26T21:01:46.778Z,96425.06
2022-12-26T21:04:33.300Z,96419.97
2022-12-26T21:07:19.425Z,96417.53
2022-12-26T21:10:05.481Z,96421.25
2022-12-26T21:12:53.433Z,96407.00
2022-12-26T21:15:39.631Z,96409.13
2022-12-26T21:18:25.702Z,96410.06
2022-12-26T21:21:17.083Z,96419.66
2022-12-26T21:24:10.871Z,96418.03
2022-12-26T21:26:57.189Z,96418.50
2022-12-26T21:29:42.995Z,96416.31
2022-12-26T21:32:28.658Z,96406.38
2022-12-26T21:35:14.960Z,96409.75
2022-12-26T21:38:01.153Z,96403.28
2022-12-26T21:40:47.372Z,96406.19
2022-12-26T21:43:34.240Z,96397.28
2022-12-26T21:46:20.660Z,96404.25
2022-12-26T21:49:06.425Z,96393.47
2022-12-26T21:51:52.052Z,96400.09
2022-12-26T21:54:56.378Z,96394.03
2022-12-26T21:57:42.182Z,96400.22
2022-12-26T22:00:31.377Z,96405.47
2022-12-26T22:03:52.539Z,96399.59
2022-12-26T22:06:38.696Z,96399.25
2022-12-26T22:09:25.044Z,96398.66
2022-12-26T22:12:30.185Z,96400.75
2022-12-26T22:15:34.948Z,96395.91
2022-12-26T22:18:21.405Z,96399.06
2022-12-26T22:21:12.987Z,96405.69
2022-12-26T22:23:59.765Z,96395.22
2022-12-26T22:26:45.910Z,96399.75
2022-12-26T22:29:31.715Z,96386.56
2022-12-26T22:32:17.454Z,96391.31
2022-12-26T22:35:03.656Z,96395.50
2022-12-26T22:37:49.451Z,96387.41
2022-12-26T22:40:36.124Z,96390.56
2022-12-26T22:43:22.311Z,96382.19
2022-12-26T22:46:08.221Z,96381.53
2022-12-26T22:48:54.038Z,96385.03
2022-12-26T22:51:39.702Z,96377.16
2022-12-26T22:54:26.079Z,96382.28
2022-12-26T22:57:12.133Z,96378.56
2022-12-26T23:00:08.235Z,96380.91
2022-12-26T23:02:55.222Z,96369.06
2022-12-26T23:05:41.592Z,96377.19
2022-12-26T23:08:28.256Z,96366.53
2022-12-26T23:11:14.497Z,96362.22
2022-12-26T23:14:01.357Z,96363.34
2022-12-26T23:16:58.385Z,96365.22
2022-12-26T23:20:07.965Z,96360.13
2022-12-26T23:22:54.095Z,96356.75
2022-12-26T23:25:40.200Z,96365.78
2022-12-26T23:28:44.619Z,96364.50
2022-12-26T23:31:30.641Z,96374.16
2022-12-26T23:34:16.369Z,96368.56
2022-12-26T23:37:02.784Z,96361.97
2022-12-26T23:39:48.646Z,96364.13
2022-12-26T23:42:34.267Z,96360.00
2022-12-26T23:45:20.191Z,96382.25
2022-12-26T23:48:06.065Z,96369.97
2022-12-26T23:51:03.914Z,96367.75
2022-12-26T23:53:49.602Z,96380.53
2022-12-26T23:56:36.978Z,96376.97
2022-12-26T23:59:23.564Z,96387.28
